Mn Pelican — FMLR — position and weather

sailwx.info

Track history (hours):
 
Tides and Currents Weather Stations Pressure Air Temp Water Temp Dewpoint Dewpoint Depression Visibility Wind Speed Wind Dir Waves Ship Positions

Mn Pelican

Last reported at 2017-Feb-22 20:30 UTC. Time now 2017-Feb-25 07:28 UTC.
Position N 46°58' W 005°06'.

Length 155 m; draft 6 m.

Type: Ship. MMSI: 228315700.

Date/timePositionNaut miles runAvg speedWind from/ knotsBaromVisibWave heightAir tempDewpointWater temp
2017-Feb-22 20:30N 46°58' W 005°06'1414.7
2017-Feb-22 19:33N 47°11' W 005°13'1514.9
2017-Feb-22 18:33N 47°25' W 005°21'16912.6
2017-Feb-22 05:09N 49°56' W 003°27'1015.4
2017-Feb-22 04:30N 50°02' W 003°14'1414.5
2017-Feb-22 03:34N 50°08' W 002°55'4414.7
2017-Feb-22 00:33N 50°32' W 001°56'1010.5
2017-Feb-21 23:34N 50°42' W 001°58'1 1.1
2017-Feb-21 22:33N 50°42' W 001°59'0 0.0
2017-Feb-21 21:33N 50°42' W 001°59'0 0.0
2017-Feb-21 20:32N 50°42' W 001°59'0 0.0
2017-Feb-21 19:33N 50°42' W 001°59'8 7.9
2017-Feb-21 18:33N 50°35' W 001°53'21816.7
2017-Feb-21 05:30N 47°55' W 005°39'2418.7
2017-Feb-21 04:14N 47°33' W 005°27'1318.6
2017-Feb-21 03:31N 47°21' W 005°20'1918.6
2017-Feb-21 02:30N 47°03' W 005°09'1818.6
2017-Feb-21 01:31N 46°46' W 004°59'180 3.6
2017-Feb-18 23:31N 49°41' W 003°58'1414.5
2017-Feb-18 22:33N 49°50' W 003°41'1413.7
2017-Feb-18 21:33N 49°58' W 003°24'1414.2
2017-Feb-18 20:33N 50°05' W 003°05'1414.3
2017-Feb-18 19:33N 50°12' W 002°45'1514.9
2017-Feb-18 18:33N 50°20' W 002°25'1715.4
2017-Feb-18 17:27N 50°28' W 002°02'1213.3
2017-Feb-18 16:33N 50°39' W 001°55'4 3.8
2017-Feb-18 15:32N 50°42' W 001°59'0 0.0
2017-Feb-18 14:31N 50°42' W 001°59'0 0.0
2017-Feb-18 13:31N 50°42' W 001°59'0 0.0
2017-Feb-18 12:34N 50°42' W 001°59'0 0.0
2017-Feb-18 11:33N 50°42' W 001°59'0 0.0
2017-Feb-18 10:33N 50°42' W 001°59'5 4.5
2017-Feb-18 09:33N 50°39' W 001°55'4 3.7
2017-Feb-18 08:33N 50°35' W 001°53'1412.8
2017-Feb-18 07:29N 50°22' W 001°53'1111.3
2017-Feb-18 06:32N 50°15' W 002°06'4212.7
2017-Feb-18 03:14N 49°49' W 002°57'913.8
2017-Feb-18 02:33N 49°45' W 003°10'10014.2
2017-Feb-17 19:31N 48°55' W 005°22'7313.4
2017-Feb-17 14:04N 47°42' W 005°32'815.2
2017-Feb-17 13:31N 47°34' W 005°27'1415.0
2017-Feb-17 12:33N 47°21' W 005°19'1515.0
2017-Feb-17 11:33N 47°07' W 005°12'  
2017-Feb-15 05:34N 49°49' W 003°46'1515.2
2017-Feb-15 04:33N 49°57' W 003°26'1615.5
2017-Feb-15 03:34N 50°05' W 003°06'1615.6
2017-Feb-15 02:33N 50°13' W 002°44'3415.7
2017-Feb-15 00:25N 50°29' W 001°59'1112.5
2017-Feb-14 23:33N 50°40' W 001°56'3 3.3
2017-Feb-14 22:31N 50°42' W 001°59'0 0.0
2017-Feb-14 21:31N 50°42' W 001°59'0 0.0
2017-Feb-14 20:31N 50°42' W 001°59'0 0.0
2017-Feb-14 19:33N 50°42' W 001°59'7 6.6
2017-Feb-14 18:34N 50°37' W 001°54'7714.8
2017-Feb-14 13:24N 49°43' W 003°19'7818.2
2017-Feb-14 09:07N 49°03' W 005°01'1219.2
2017-Feb-14 08:30N 48°56' W 005°16'7117.2
2017-Feb-14 04:23N 47°46' W 005°34'1619.9
2017-Feb-14 03:33N 47°31' W 005°25'  
Track history (hours):
 
Tides and Currents Weather Stations Pressure Air Temp Water Temp Dewpoint Dewpoint Depression Visibility Wind Speed Wind Dir Waves Ship Positions

Mn Pelican

Last reported at 2017-Feb-22 20:30 UTC. Time now 2017-Feb-25 07:28 UTC.
Position N 46°58' W 005°06'.

Length 155 m; draft 6 m.

Type: Ship. MMSI: 228315700.

Date/timePositionNaut miles runAvg speedWind from/ knotsBaromVisibWave heightAir tempDewpointWater temp
2017-Feb-22 20:30N 46°58' W 005°06'1414.7
2017-Feb-22 19:33N 47°11' W 005°13'1514.9
2017-Feb-22 18:33N 47°25' W 005°21'16912.6
2017-Feb-22 05:09N 49°56' W 003°27'1015.4
2017-Feb-22 04:30N 50°02' W 003°14'1414.5
2017-Feb-22 03:34N 50°08' W 002°55'4414.7
2017-Feb-22 00:33N 50°32' W 001°56'1010.5
2017-Feb-21 23:34N 50°42' W 001°58'1 1.1
2017-Feb-21 22:33N 50°42' W 001°59'0 0.0
2017-Feb-21 21:33N 50°42' W 001°59'0 0.0
2017-Feb-21 20:32N 50°42' W 001°59'0 0.0
2017-Feb-21 19:33N 50°42' W 001°59'8 7.9
2017-Feb-21 18:33N 50°35' W 001°53'21816.7
2017-Feb-21 05:30N 47°55' W 005°39'2418.7
2017-Feb-21 04:14N 47°33' W 005°27'1318.6
2017-Feb-21 03:31N 47°21' W 005°20'1918.6
2017-Feb-21 02:30N 47°03' W 005°09'1818.6
2017-Feb-21 01:31N 46°46' W 004°59'180 3.6
2017-Feb-18 23:31N 49°41' W 003°58'1414.5
2017-Feb-18 22:33N 49°50' W 003°41'1413.7
2017-Feb-18 21:33N 49°58' W 003°24'1414.2
2017-Feb-18 20:33N 50°05' W 003°05'1414.3
2017-Feb-18 19:33N 50°12' W 002°45'1514.9
2017-Feb-18 18:33N 50°20' W 002°25'1715.4
2017-Feb-18 17:27N 50°28' W 002°02'1213.3
2017-Feb-18 16:33N 50°39' W 001°55'4 3.8
2017-Feb-18 15:32N 50°42' W 001°59'0 0.0
2017-Feb-18 14:31N 50°42' W 001°59'0 0.0
2017-Feb-18 13:31N 50°42' W 001°59'0 0.0
2017-Feb-18 12:34N 50°42' W 001°59'0 0.0
2017-Feb-18 11:33N 50°42' W 001°59'0 0.0
2017-Feb-18 10:33N 50°42' W 001°59'5 4.5
2017-Feb-18 09:33N 50°39' W 001°55'4 3.7
2017-Feb-18 08:33N 50°35' W 001°53'1412.8
2017-Feb-18 07:29N 50°22' W 001°53'1111.3
2017-Feb-18 06:32N 50°15' W 002°06'4212.7
2017-Feb-18 03:14N 49°49' W 002°57'913.8
2017-Feb-18 02:33N 49°45' W 003°10'10014.2
2017-Feb-17 19:31N 48°55' W 005°22'7313.4
2017-Feb-17 14:04N 47°42' W 005°32'815.2
2017-Feb-17 13:31N 47°34' W 005°27'1415.0
2017-Feb-17 12:33N 47°21' W 005°19'1515.0
2017-Feb-17 11:33N 47°07' W 005°12'  
2017-Feb-15 05:34N 49°49' W 003°46'1515.2
2017-Feb-15 04:33N 49°57' W 003°26'1615.5
2017-Feb-15 03:34N 50°05' W 003°06'1615.6
2017-Feb-15 02:33N 50°13' W 002°44'3415.7
2017-Feb-15 00:25N 50°29' W 001°59'1112.5
2017-Feb-14 23:33N 50°40' W 001°56'3 3.3
2017-Feb-14 22:31N 50°42' W 001°59'0 0.0
2017-Feb-14 21:31N 50°42' W 001°59'0 0.0
2017-Feb-14 20:31N 50°42' W 001°59'0 0.0
2017-Feb-14 19:33N 50°42' W 001°59'7 6.6
2017-Feb-14 18:34N 50°37' W 001°54'7714.8
2017-Feb-14 13:24N 49°43' W 003°19'7818.2
2017-Feb-14 09:07N 49°03' W 005°01'1219.2
2017-Feb-14 08:30N 48°56' W 005°16'7117.2
2017-Feb-14 04:23N 47°46' W 005°34'1619.9
2017-Feb-14 03:33N 47°31' W 005°25'  

Dump ship's entire track history